createdAt,value
2018-05-24T00:02:11.205Z,4.93
2018-05-24T00:04:38.905Z,5.40
2018-05-24T00:07:06.606Z,4.60
2018-05-24T00:09:34.429Z,4.30
2018-05-24T00:12:02.069Z,4.50
2018-05-24T00:14:29.753Z,4.10
2018-05-24T00:16:57.909Z,4.30
2018-05-24T00:19:26.116Z,4.50
2018-05-24T00:21:53.736Z,4.57
2018-05-24T00:24:21.735Z,4.70
2018-05-24T00:26:49.446Z,4.67
2018-05-24T00:29:17.109Z,3.97
2018-05-24T00:31:44.618Z,4.87
2018-05-24T00:34:12.297Z,3.80
2018-05-24T00:36:39.954Z,4.03
2018-05-24T00:39:07.615Z,3.87
2018-05-24T00:41:35.413Z,5.23
2018-05-24T00:44:02.967Z,4.13
2018-05-24T00:46:30.730Z,3.80
2018-05-24T00:48:58.265Z,4.00
2018-05-24T00:51:26.057Z,4.00
2018-05-24T00:53:53.660Z,3.93
2018-05-24T00:56:21.245Z,4.10
2018-05-24T00:58:49.361Z,4.13
2018-05-24T01:01:17.373Z,6.83
2018-05-24T01:03:45.256Z,4.20
2018-05-24T01:06:12.912Z,3.90
2018-05-24T01:08:40.529Z,4.87
2018-05-24T01:11:08.412Z,4.03
2018-05-24T01:13:36.041Z,3.80
2018-05-24T01:16:03.696Z,4.20
2018-05-24T01:18:31.448Z,3.20
2018-05-24T01:20:59.063Z,5.50
2018-05-24T01:23:26.680Z,3.73
2018-05-24T01:25:54.639Z,3.53
2018-05-24T01:28:24.862Z,3.33
2018-05-24T01:30:52.543Z,3.63
2018-05-24T01:33:20.180Z,3.40
2018-05-24T01:35:47.868Z,3.83
2018-05-24T01:38:15.518Z,3.70
2018-05-24T01:40:43.180Z,3.57
2018-05-24T01:43:10.822Z,3.77
2018-05-24T01:45:38.530Z,3.30
2018-05-24T01:48:06.192Z,4.03
2018-05-24T01:50:33.854Z,3.83
2018-05-24T01:53:01.517Z,3.90
2018-05-24T01:55:29.179Z,4.67
2018-05-24T01:57:56.829Z,3.57
2018-05-24T02:00:24.460Z,3.50
2018-05-24T02:02:52.057Z,5.23
2018-05-24T02:05:19.591Z,8.87
2018-05-24T02:07:47.231Z,3.33
2018-05-24T02:10:15.154Z,3.73
2018-05-24T02:12:42.824Z,3.47
2018-05-24T02:15:10.485Z,3.23
2018-05-24T02:17:37.993Z,3.90
2018-05-24T02:20:06.205Z,3.60
2018-05-24T02:22:33.809Z,4.20
2018-05-24T02:25:01.517Z,5.77
2018-05-24T02:27:29.204Z,3.10
2018-05-24T02:29:56.841Z,3.60
2018-05-24T02:32:24.507Z,3.70
2018-05-24T02:34:52.161Z,3.43
2018-05-24T02:37:19.848Z,3.17
2018-05-24T02:39:47.436Z,3.20
2018-05-24T02:42:15.358Z,3.47
2018-05-24T02:44:43.098Z,3.43
2018-05-24T02:47:11.350Z,3.13
2018-05-24T02:49:38.952Z,3.53
2018-05-24T02:52:06.642Z,4.13
2018-05-24T02:54:34.476Z,3.40
2018-05-24T02:57:02.140Z,2.73
2018-05-24T02:59:29.833Z,3.20
2018-05-24T03:01:57.457Z,3.87
2018-05-24T03:04:25.138Z,3.33
2018-05-24T03:06:52.830Z,2.90
2018-05-24T03:09:20.710Z,3.20
2018-05-24T03:11:48.305Z,3.17
2018-05-24T03:14:15.941Z,3.97
2018-05-24T03:16:43.449Z,3.40
2018-05-24T03:19:11.112Z,3.47
2018-05-24T03:21:38.955Z,3.60
2018-05-24T03:24:06.575Z,3.47
2018-05-24T03:26:34.285Z,3.80
2018-05-24T03:29:02.098Z,3.50
2018-05-24T03:31:29.750Z,3.93
2018-05-24T03:33:57.415Z,3.40
2018-05-24T03:36:24.925Z,3.13
2018-05-24T03:38:52.572Z,7.17
2018-05-24T03:41:20.526Z,3.00
2018-05-24T03:43:48.465Z,4.67
2018-05-24T03:46:16.133Z,3.07
2018-05-24T03:48:43.853Z,3.27
2018-05-24T03:51:11.661Z,2.93
2018-05-24T03:53:39.537Z,3.70
2018-05-24T03:56:07.184Z,4.40
2018-05-24T03:58:34.982Z,2.60
2018-05-24T04:01:14.593Z,3.40
2018-05-24T04:03:48.115Z,4.90
2018-05-24T04:06:15.838Z,2.87
2018-05-24T04:08:43.559Z,2.83
2018-05-24T04:11:11.225Z,5.27
2018-05-24T04:13:38.825Z,2.80
2018-05-24T04:16:06.337Z,4.10
2018-05-24T04:18:33.988Z,3.10
2018-05-24T04:21:01.655Z,5.97
2018-05-24T04:23:29.256Z,2.90
2018-05-24T04:25:57.180Z,2.60
2018-05-24T04:28:24.860Z,3.17
2018-05-24T04:30:52.373Z,2.87
2018-05-24T04:33:20.320Z,3.70
2018-05-24T04:35:47.844Z,2.63
2018-05-24T04:38:15.429Z,3.47
2018-05-24T04:40:42.964Z,3.13
2018-05-24T04:43:10.662Z,3.17
2018-05-24T04:45:38.229Z,3.37
2018-05-24T04:48:05.873Z,3.40
2018-05-24T04:50:33.401Z,3.20
2018-05-24T04:53:01.266Z,3.30
2018-05-24T04:55:28.781Z,3.47
2018-05-24T04:57:56.733Z,4.37
2018-05-24T05:00:24.274Z,5.80
2018-05-24T05:02:51.838Z,2.83
2018-05-24T05:05:19.554Z,3.00
2018-05-24T05:07:47.423Z,3.00
2018-05-24T05:10:15.077Z,3.10
2018-05-24T05:12:42.942Z,3.30
2018-05-24T05:15:10.688Z,8.10
2018-05-24T05:17:38.894Z,3.20
2018-05-24T05:20:06.608Z,2.80
2018-05-24T05:22:34.223Z,3.83
2018-05-24T05:25:01.886Z,3.00
2018-05-24T05:27:29.476Z,3.43
2018-05-24T05:29:57.384Z,3.57
2018-05-24T05:32:25.063Z,3.67
2018-05-24T05:34:52.723Z,4.43
2018-05-24T05:37:20.576Z,3.67
2018-05-24T05:39:48.184Z,3.07
2018-05-24T05:42:15.722Z,3.70
2018-05-24T05:44:43.443Z,3.37
2018-05-24T05:47:11.025Z,2.93
2018-05-24T05:49:38.710Z,4.13
2018-05-24T05:52:06.582Z,3.07
2018-05-24T05:54:34.240Z,3.53
2018-05-24T05:57:01.876Z,3.00
2018-05-24T05:59:29.528Z,3.43
2018-05-24T06:01:57.265Z,6.17
2018-05-24T06:04:24.852Z,3.47
2018-05-24T06:06:52.514Z,3.33
2018-05-24T06:09:20.124Z,3.10
2018-05-24T06:11:47.830Z,3.80
2018-05-24T06:14:15.495Z,4.43
2018-05-24T06:16:43.104Z,3.20
2018-05-24T06:19:10.829Z,3.27
2018-05-24T06:21:38.583Z,3.70
2018-05-24T06:24:06.308Z,3.60
2018-05-24T06:26:33.955Z,3.00
2018-05-24T06:29:01.480Z,3.23
2018-05-24T06:31:29.333Z,4.13
2018-05-24T06:33:56.960Z,3.30
2018-05-24T06:36:24.598Z,3.70
2018-05-24T06:38:52.332Z,4.07
2018-05-24T06:41:19.978Z,4.53
2018-05-24T06:43:47.592Z,3.73
2018-05-24T06:46:15.296Z,3.43
2018-05-24T06:48:43.125Z,3.40
2018-05-24T06:51:10.765Z,3.57
2018-05-24T06:53:38.325Z,3.70
2018-05-24T06:56:05.955Z,3.73
2018-05-24T06:58:33.773Z,4.23
2018-05-24T07:01:02.054Z,3.77
2018-05-24T07:03:29.684Z,4.80
2018-05-24T07:05:57.458Z,3.90
2018-05-24T07:08:25.465Z,4.10
2018-05-24T07:10:53.068Z,3.90
2018-05-24T07:13:20.795Z,3.73
2018-05-24T07:15:48.452Z,3.63
2018-05-24T07:18:16.061Z,3.53
2018-05-24T07:20:43.790Z,3.20
2018-05-24T07:23:11.379Z,4.60
2018-05-24T07:25:39.120Z,5.53
2018-05-24T07:28:06.698Z,4.63
2018-05-24T07:30:34.360Z,6.10
2018-05-24T07:33:02.093Z,5.30
2018-05-24T07:35:29.692Z,7.67
2018-05-24T07:37:57.610Z,6.60
2018-05-24T07:40:25.292Z,13.40
2018-05-24T07:42:53.081Z,7.20
2018-05-24T07:45:20.794Z,7.80
2018-05-24T07:47:48.469Z,6.87
2018-05-24T07:50:16.325Z,10.67
2018-05-24T07:52:43.840Z,6.57
2018-05-24T07:55:11.636Z,6.23
2018-05-24T07:57:39.307Z,6.30
2018-05-24T08:00:07.173Z,6.27
2018-05-24T08:02:34.839Z,6.63
2018-05-24T08:05:02.432Z,5.40
2018-05-24T08:07:30.089Z,4.97
2018-05-24T08:09:57.756Z,4.50
2018-05-24T08:12:25.419Z,5.17
2018-05-24T08:14:54.008Z,6.43
2018-05-24T08:17:21.575Z,4.87
2018-05-24T08:19:49.231Z,5.17
2018-05-24T08:22:16.966Z,5.13
2018-05-24T08:24:44.550Z,4.40
2018-05-24T08:27:12.464Z,4.80
2018-05-24T08:29:40.118Z,4.90
2018-05-24T08:32:07.738Z,4.47
2018-05-24T08:34:35.391Z,4.00
2018-05-24T08:37:03.316Z,4.67
2018-05-24T08:39:30.985Z,4.07
2018-05-24T08:41:58.572Z,4.70
2018-05-24T08:44:26.309Z,3.77
2018-05-24T08:46:53.976Z,3.73
2018-05-24T08:49:21.569Z,3.60
2018-05-24T08:51:49.227Z,4.80
2018-05-24T08:54:16.824Z,4.30
2018-05-24T08:56:44.389Z,4.30
2018-05-24T08:59:12.299Z,5.93
2018-05-24T09:01:39.938Z,4.70
2018-05-24T09:04:07.585Z,17.13
2018-05-24T09:06:35.263Z,3.53
2018-05-24T09:09:02.909Z,3.70
2018-05-24T09:11:30.557Z,3.90
2018-05-24T09:13:58.217Z,4.73
2018-05-24T09:16:25.873Z,4.30
2018-05-24T09:18:53.945Z,3.43
2018-05-24T09:21:21.632Z,3.40
2018-05-24T09:23:49.282Z,3.53
2018-05-24T09:26:16.934Z,3.40
2018-05-24T09:28:44.588Z,4.00
2018-05-24T09:31:12.217Z,4.33
2018-05-24T09:33:39.869Z,4.37
2018-05-24T09:36:07.584Z,3.77
2018-05-24T09:38:35.684Z,4.20
2018-05-24T09:41:03.353Z,4.43
2018-05-24T09:43:30.965Z,3.83
2018-05-24T09:45:58.877Z,5.40
2018-05-24T09:48:26.503Z,3.20
2018-05-24T09:50:54.140Z,3.83
2018-05-24T09:53:21.827Z,3.23
2018-05-24T09:55:49.356Z,4.37
2018-05-24T09:58:17.573Z,5.03
2018-05-24T10:00:45.181Z,3.27
2018-05-24T10:03:12.881Z,3.50
2018-05-24T10:05:40.616Z,4.00
2018-05-24T10:08:08.829Z,3.70
2018-05-24T10:10:36.493Z,3.83
2018-05-24T10:13:04.140Z,5.90
2018-05-24T10:15:31.670Z,4.30
2018-05-24T10:17:59.669Z,3.83
2018-05-24T10:20:27.344Z,3.60
2018-05-24T10:22:55.256Z,3.67
2018-05-24T10:25:23.247Z,3.70
2018-05-24T10:27:50.754Z,4.40
2018-05-24T10:30:18.396Z,5.53
2018-05-24T10:32:46.242Z,3.60
2018-05-24T10:35:13.844Z,3.90
2018-05-24T10:37:41.525Z,2.80
2018-05-24T10:40:09.210Z,3.40
2018-05-24T10:42:36.863Z,3.80
2018-05-24T10:45:04.492Z,3.70
2018-05-24T10:47:32.211Z,5.40
2018-05-24T10:49:59.821Z,4.00
2018-05-24T10:52:27.524Z,4.93
2018-05-24T10:54:55.128Z,3.57
2018-05-24T10:57:22.817Z,3.10
2018-05-24T10:59:50.824Z,3.27
2018-05-24T11:02:18.583Z,3.43
2018-05-24T11:04:46.085Z,4.47
2018-05-24T11:07:14.109Z,3.23
2018-05-24T11:09:41.730Z,3.63
2018-05-24T11:12:09.406Z,3.20
2018-05-24T11:14:37.490Z,3.40
2018-05-24T11:17:05.133Z,3.30
2018-05-24T11:19:32.775Z,3.10
2018-05-24T11:22:00.486Z,3.27
2018-05-24T11:24:28.153Z,3.27
2018-05-24T11:26:55.665Z,3.80
2018-05-24T11:29:23.624Z,3.50
2018-05-24T11:31:51.302Z,3.40
2018-05-24T11:34:19.203Z,3.23
2018-05-24T11:36:46.812Z,4.10
2018-05-24T11:39:14.461Z,3.17
2018-05-24T11:41:42.304Z,3.23
2018-05-24T11:44:10.013Z,3.37
2018-05-24T11:46:37.670Z,3.57
2018-05-24T11:49:05.337Z,3.03
2018-05-24T11:51:33.388Z,3.50
2018-05-24T11:54:00.913Z,3.80
2018-05-24T11:56:28.548Z,3.73
2018-05-24T11:58:56.168Z,3.37
2018-05-24T12:01:23.873Z,3.17
2018-05-24T12:03:51.733Z,3.50
2018-05-24T12:06:19.395Z,3.80
2018-05-24T12:08:47.271Z,4.07
2018-05-24T12:11:15.129Z,3.33
2018-05-24T12:13:42.849Z,3.40
2018-05-24T12:16:10.652Z,5.00
2018-05-24T12:18:38.342Z,4.80
2018-05-24T12:21:05.858Z,3.90
2018-05-24T12:23:33.483Z,4.10
2018-05-24T12:26:01.116Z,4.87
2018-05-24T12:28:28.785Z,3.60
2018-05-24T12:30:56.424Z,4.07
2018-05-24T12:33:24.032Z,3.80
2018-05-24T12:35:51.648Z,3.70
2018-05-24T12:38:19.397Z,3.57
2018-05-24T12:40:47.013Z,3.30
2018-05-24T12:43:14.925Z,5.43
2018-05-24T12:45:43.700Z,7.80
2018-05-24T12:48:11.433Z,3.80
2018-05-24T12:50:39.028Z,4.03
2018-05-24T12:53:06.869Z,3.90
2018-05-24T12:55:34.901Z,4.13
2018-05-24T12:58:02.485Z,4.20
2018-05-24T13:00:50.892Z,3.97
2018-05-24T13:03:18.490Z,3.30
2018-05-24T13:05:46.178Z,3.73
2018-05-24T13:08:13.881Z,3.90
2018-05-24T13:10:41.497Z,3.30
2018-05-24T13:13:08.992Z,4.70
2018-05-24T13:15:36.788Z,3.73
2018-05-24T13:18:04.465Z,3.50
2018-05-24T13:20:32.126Z,3.63
2018-05-24T13:22:59.845Z,3.70
2018-05-24T13:25:27.713Z,3.57
2018-05-24T13:27:55.556Z,4.23
2018-05-24T13:30:23.068Z,3.87
2018-05-24T13:32:50.893Z,4.17
2018-05-24T13:35:18.746Z,3.83
2018-05-24T13:37:46.402Z,4.30
2018-05-24T13:40:14.012Z,4.10
2018-05-24T13:42:41.939Z,3.90
2018-05-24T13:45:09.537Z,4.07
2018-05-24T13:47:37.217Z,7.23
2018-05-24T13:50:04.801Z,4.43
2018-05-24T13:52:33.045Z,4.20
2018-05-24T13:55:00.863Z,4.57
2018-05-24T13:57:40.238Z,3.60
2018-05-24T14:00:07.797Z,6.30
2018-05-24T14:02:35.472Z,4.33
2018-05-24T14:05:03.007Z,4.37
2018-05-24T14:07:30.912Z,3.80
2018-05-24T14:09:58.844Z,4.10
2018-05-24T14:12:26.526Z,4.23
2018-05-24T14:14:54.172Z,4.10
2018-05-24T14:17:21.696Z,3.97
2018-05-24T14:19:49.339Z,4.27
2018-05-24T14:22:16.956Z,4.23
2018-05-24T14:24:44.480Z,4.40
2018-05-24T14:27:12.387Z,3.70
2018-05-24T14:29:39.981Z,3.90
2018-05-24T14:32:07.490Z,4.00
2018-05-24T14:34:35.280Z,4.00
2018-05-24T14:37:02.925Z,4.00
2018-05-24T14:39:30.468Z,3.83
2018-05-24T14:41:58.108Z,3.87
2018-05-24T14:44:25.720Z,3.73
2018-05-24T14:46:53.361Z,4.57
2018-05-24T14:49:21.043Z,4.47
2018-05-24T14:51:48.726Z,5.03
2018-05-24T14:54:16.432Z,4.50
2018-05-24T14:56:44.050Z,5.73
2018-05-24T14:59:11.757Z,4.50
2018-05-24T15:01:39.368Z,5.20
2018-05-24T15:04:07.608Z,5.03
2018-05-24T15:06:35.260Z,4.30
2018-05-24T15:09:02.913Z,4.20
2018-05-24T15:11:30.625Z,4.10
2018-05-24T15:13:58.184Z,4.70
2018-05-24T15:16:25.937Z,5.07
2018-05-24T15:18:54.021Z,4.80
2018-05-24T15:21:21.677Z,4.57
2018-05-24T15:23:49.384Z,4.50
2018-05-24T15:26:17.215Z,4.80
2018-05-24T15:28:45.073Z,4.57
2018-05-24T15:31:13.161Z,5.47
2018-05-24T15:33:40.838Z,5.53
2018-05-24T15:36:08.474Z,4.90
2018-05-24T15:38:36.125Z,4.50
2018-05-24T15:41:03.747Z,4.73
2018-05-24T15:43:31.245Z,4.83
2018-05-24T15:45:58.908Z,4.30
2018-05-24T15:48:26.579Z,5.03
2018-05-24T15:50:54.385Z,4.93
2018-05-24T15:53:22.119Z,4.93
2018-05-24T15:55:49.633Z,4.67
2018-05-24T15:58:17.853Z,4.30
2018-05-24T16:00:45.446Z,4.70
2018-05-24T16:03:13.721Z,4.70
2018-05-24T16:05:46.104Z,5.60
2018-05-24T16:08:13.801Z,6.07
2018-05-24T16:10:41.639Z,4.57
2018-05-24T16:13:09.524Z,5.53
2018-05-24T16:15:37.194Z,5.93
2018-05-24T16:18:04.845Z,5.30
2018-05-24T16:20:32.469Z,4.73
2018-05-24T16:23:01.017Z,5.33
2018-05-24T16:25:28.648Z,5.43
2018-05-24T16:27:56.382Z,5.10
2018-05-24T16:30:24.688Z,5.47
2018-05-24T16:32:52.274Z,5.43
2018-05-24T16:35:19.777Z,7.30
2018-05-24T16:37:47.988Z,5.40
2018-05-24T16:40:15.596Z,5.07
2018-05-24T16:42:43.297Z,6.30
2018-05-24T16:45:10.914Z,9.20
2018-05-24T16:47:38.568Z,5.70
2018-05-24T16:50:07.746Z,7.20
2018-05-24T16:52:35.607Z,6.30
2018-05-24T16:55:03.245Z,6.07
2018-05-24T16:57:30.997Z,5.40
2018-05-24T16:59:58.717Z,5.30
2018-05-24T17:02:26.405Z,6.40
2018-05-24T17:04:54.048Z,5.87
2018-05-24T17:07:21.749Z,5.93
2018-05-24T17:09:49.419Z,5.70
2018-05-24T17:12:17.285Z,6.20
2018-05-24T17:14:44.889Z,5.60
2018-05-24T17:17:12.636Z,6.13
2018-05-24T17:19:40.463Z,6.00
2018-05-24T17:22:08.081Z,9.07
2018-05-24T17:24:35.993Z,7.80
2018-05-24T17:27:03.609Z,6.07
2018-05-24T17:29:31.880Z,5.90
2018-05-24T17:31:59.394Z,6.30
2018-05-24T17:34:31.765Z,6.03
2018-05-24T17:36:59.452Z,6.10
2018-05-24T17:39:27.238Z,6.07
2018-05-24T17:41:54.957Z,5.80
2018-05-24T17:44:22.615Z,5.73
2018-05-24T17:46:50.219Z,6.00
2018-05-24T17:49:18.219Z,5.57
2018-05-24T17:51:46.612Z,6.67
2018-05-24T17:54:14.249Z,5.90
2018-05-24T17:56:41.885Z,6.17
2018-05-24T17:59:09.806Z,6.10
2018-05-24T18:01:37.468Z,5.80
2018-05-24T18:04:05.097Z,5.60
2018-05-24T18:06:32.745Z,6.20
2018-05-24T18:09:00.284Z,6.23
2018-05-24T18:11:27.945Z,5.70
2018-05-24T18:13:55.562Z,6.17
2018-05-24T18:16:23.230Z,6.20
2018-05-24T18:18:50.832Z,5.73
2018-05-24T18:21:18.667Z,6.30
2018-05-24T18:23:46.360Z,6.40
2018-05-24T18:26:14.095Z,5.70
2018-05-24T18:28:41.733Z,6.17
2018-05-24T18:31:09.669Z,6.17
2018-05-24T18:33:37.620Z,6.83
2018-05-24T18:36:05.437Z,6.23
2018-05-24T18:38:33.174Z,6.17
2018-05-24T18:41:01.099Z,5.90
2018-05-24T18:43:28.672Z,6.33
2018-05-24T18:45:56.353Z,6.77
2018-05-24T18:48:23.856Z,5.87
2018-05-24T18:50:51.555Z,6.10
2018-05-24T18:53:19.114Z,6.50
2018-05-24T18:55:46.652Z,6.10
2018-05-24T18:58:14.481Z,6.37
2018-05-24T19:00:42.347Z,5.90
2018-05-24T19:03:09.871Z,6.50
2018-05-24T19:05:37.394Z,5.67
2018-05-24T19:08:04.953Z,6.13
2018-05-24T19:10:32.536Z,6.70
2018-05-24T19:13:06.070Z,7.40
2018-05-24T19:15:33.601Z,5.70
2018-05-24T19:18:01.128Z,7.30
2018-05-24T19:20:29.377Z,6.60
2018-05-24T19:22:57.449Z,6.00
2018-05-24T19:25:25.109Z,6.33
2018-05-24T19:27:52.923Z,6.97
2018-05-24T19:30:20.585Z,5.83
2018-05-24T19:32:48.297Z,6.30
2018-05-24T19:35:19.795Z,6.33
2018-05-24T19:37:47.444Z,6.30
2018-05-24T19:40:15.196Z,6.47
2018-05-24T19:42:43.029Z,7.40
2018-05-24T19:45:10.706Z,6.33
2018-05-24T19:47:38.305Z,6.40
2018-05-24T19:50:05.935Z,6.80
2018-05-24T19:52:33.616Z,6.80
2018-05-24T19:55:01.128Z,6.87
2018-05-24T19:57:31.840Z,6.50
2018-05-24T19:59:59.464Z,7.50
2018-05-24T20:02:27.205Z,6.90
2018-05-24T20:04:55.013Z,6.67
2018-05-24T20:07:22.657Z,7.07
2018-05-24T20:09:50.163Z,6.13
2018-05-24T20:12:17.795Z,6.97
2018-05-24T20:14:45.298Z,7.70
2018-05-24T20:17:12.973Z,7.30
2018-05-24T20:19:41.022Z,7.13
2018-05-24T20:22:08.526Z,7.27
2018-05-24T20:24:36.082Z,7.83
2018-05-24T20:27:03.800Z,7.70
2018-05-24T20:29:31.662Z,7.40
2018-05-24T20:31:59.182Z,7.43
2018-05-24T20:34:26.783Z,8.00
2018-05-24T20:36:54.640Z,7.10
2018-05-24T20:39:22.309Z,7.97
2018-05-24T20:41:49.985Z,7.73
2018-05-24T20:44:17.644Z,8.10
2018-05-24T20:46:45.284Z,7.93
2018-05-24T20:49:12.888Z,7.53
2018-05-24T20:51:40.614Z,7.10
2018-05-24T20:54:08.294Z,7.47
2018-05-24T20:56:35.807Z,8.50
2018-05-24T20:59:03.979Z,7.40
2018-05-24T21:01:31.666Z,8.17
2018-05-24T21:04:00.224Z,8.10
2018-05-24T21:06:27.971Z,7.93
2018-05-24T21:08:55.652Z,7.77
2018-05-24T21:11:23.531Z,8.07
2018-05-24T21:13:51.252Z,8.63
2018-05-24T21:16:19.063Z,7.70
2018-05-24T21:18:46.735Z,9.20
2018-05-24T21:21:14.671Z,8.20
2018-05-24T21:23:42.452Z,9.03
2018-05-24T21:26:13.952Z,9.57
2018-05-24T21:28:41.455Z,9.13
2018-05-24T21:31:09.324Z,8.50
2018-05-24T21:33:37.010Z,8.80
2018-05-24T21:36:04.697Z,9.20
2018-05-24T21:38:32.337Z,8.63
2018-05-24T21:41:00.179Z,9.23
2018-05-24T21:43:27.792Z,13.13
2018-05-24T21:45:55.392Z,9.07
2018-05-24T21:48:22.933Z,9.13
2018-05-24T21:50:50.580Z,9.27
2018-05-24T21:53:18.092Z,10.00
2018-05-24T21:55:45.704Z,9.17
2018-05-24T21:58:13.697Z,9.27
2018-05-24T22:00:55.961Z,9.87
2018-05-24T22:03:23.467Z,9.40
2018-05-24T22:05:51.149Z,9.30
2018-05-24T22:08:19.046Z,9.20
2018-05-24T22:10:46.629Z,8.93
2018-05-24T22:13:14.533Z,9.70
2018-05-24T22:15:42.179Z,10.40
2018-05-24T22:18:10.250Z,8.87
2018-05-24T22:20:37.858Z,10.20
2018-05-24T22:23:05.452Z,9.13
2018-05-24T22:25:32.984Z,10.17
2018-05-24T22:28:00.656Z,10.40
2018-05-24T22:30:28.169Z,8.93
2018-05-24T22:32:55.843Z,10.27
2018-05-24T22:35:23.420Z,9.80
2018-05-24T22:37:51.331Z,9.57
2018-05-24T22:40:19.195Z,10.10
2018-05-24T22:42:47.082Z,10.47
2018-05-24T22:45:14.676Z,10.23
2018-05-24T22:47:42.200Z,11.27
2018-05-24T22:50:09.793Z,11.23
2018-05-24T22:52:37.564Z,10.23
2018-05-24T22:55:05.167Z,10.23
2018-05-24T22:57:32.768Z,11.47
2018-05-24T23:00:00.480Z,10.97
2018-05-24T23:02:28.123Z,10.63
2018-05-24T23:05:01.988Z,11.30
2018-05-24T23:07:29.560Z,10.80
2018-05-24T23:09:57.216Z,10.53
2018-05-24T23:12:24.949Z,11.43
2018-05-24T23:14:52.861Z,11.10
2018-05-24T23:17:20.623Z,11.47
2018-05-24T23:19:48.281Z,10.47
2018-05-24T23:22:27.969Z,12.03
2018-05-24T23:24:55.943Z,12.50
2018-05-24T23:27:23.672Z,14.37
2018-05-24T23:29:51.872Z,11.63
2018-05-24T23:32:19.533Z,10.93
2018-05-24T23:34:47.196Z,12.53
2018-05-24T23:37:14.807Z,13.50
2018-05-24T23:39:42.520Z,11.50
2018-05-24T23:42:10.169Z,11.70
2018-05-24T23:44:37.813Z,13.20
2018-05-24T23:47:05.505Z,12.43
2018-05-24T23:49:33.112Z,15.23
2018-05-24T23:52:00.640Z,12.10
2018-05-24T23:54:28.155Z,12.77
2018-05-24T23:56:56.145Z,18.13
2018-05-24T23:59:24.004Z,12.20
